Bangkok (Don Mueang), Thailand

11:53 AM ICT on February 27, 2015 (GMT +0700)
Khu Khot | Change Station
CLOSE
Current Station
Personal Weather Station
Location: Pathum Thani, PATHUM THANI
Elevation: 15 ft
Nearby Weather Stations

Elev 15 ft 13.96 °N, 100.65 °E | Updated 51 seconds ago

Scattered Clouds
Scattered Clouds
95.2 °F
Feels Like 109 °F
N
1.6
Wind Variable Wind from ESE
Gusts 2.2 mph

Today
High -- | Low -- °F
--% Chance of Precip.
Yesterday
High -- | Low -- °F
Precip. -- in
6:35 AM 6:25 PM
Waxing Gibbous, 65% visible
Pressure 29.89 in
Visibility 6.2 miles
Clouds Few 2500 ft
Scattered Clouds 30000 ft
Heat Index 109 °F
Dew Point 76 °F
Humidity 55%
Rainfall 0.13 in
Snow Depth Not available.
UV 12 out of 12
Pollen Not available.
Air Quality Not available.
Flu Activity Not available.
METAR VTBD 270430Z 25005KT 9999 FEW025 SCT300 33/23 Q1012 NOSIG

More Conditions Fewer Conditions

Pressure 29.89 in
Visibility 6.2 miles
Clouds Few 2500 ft
Scattered Clouds 30000 ft
Heat Index 109 °F
Dew Point 76 °F
Humidity 55%
Rainfall 0.13 in
Snow Depth Not available.
UV 12 out of 12
Pollen Not available.
Air Quality Not available.
Flu Activity Not available.
METAR VTBD 270430Z 25005KT 9999 FEW025 SCT300 33/23 Q1012 NOSIG

More Conditions Fewer Conditions

10-Day Weather Forecast

Almanac

Astronomy

Feb. 27, 2015 Rise Set
Actual Time
Civil Twilight
Nautical Twilight
Astronomical Twilight
Moon
Length of Visible Light
Length of Day
Tomorrow will be .
, % of the Moon is Illuminated

Today's Extremes

Country Highs Country Lows

Community

WunderPhotos

Upload Photos

1,800,632 photos uploaded!

WunderBlogs® & News

Nearby

Air Quality

  Air Quality AQ Index Pollutant
Not available.

Snow Depth

Station Depth Elevation

Earthquake Activity

City Distance Mag. Time & Date
Minimum magnitude displayed is 2.5.

Coastal Water Temperatures

Place Temperature

Nearby Weather Stations